sensor_id;sensor_type;location;lat;lon;timestamp;temperature;humidity
36446;DHT22;22472;50.848;-1.216;2022-08-04T00:00:45;19.10;99.90
36446;DHT22;22472;50.848;-1.216;2022-08-04T00:03:20;19.10;99.90
36446;DHT22;22472;50.848;-1.216;2022-08-04T00:05:58;19.10;99.90
36446;DHT22;22472;50.848;-1.216;2022-08-04T00:08:35;19.20;99.90
36446;DHT22;22472;50.848;-1.216;2022-08-04T00:11:07;19.20;99.90
36446;DHT22;22472;50.848;-1.216;2022-08-04T00:13:37;19.30;99.90
36446;DHT22;22472;50.848;-1.216;2022-08-04T00:16:06;19.30;99.90
36446;DHT22;22472;50.848;-1.216;2022-08-04T00:18:36;19.30;99.90
36446;DHT22;22472;50.848;-1.216;2022-08-04T00:21:08;19.40;99.90
36446;DHT22;22472;50.848;-1.216;2022-08-04T00:23:38;19.30;99.90
36446;DHT22;22472;50.848;-1.216;2022-08-04T00:26:09;19.40;99.90
36446;DHT22;22472;50.848;-1.216;2022-08-04T00:28:37;19.30;99.90
36446;DHT22;22472;50.848;-1.216;2022-08-04T00:31:06;19.30;99.90
36446;DHT22;22472;50.848;-1.216;2022-08-04T00:33:36;19.40;99.90
36446;DHT22;22472;50.848;-1.216;2022-08-04T00:36:04;19.40;99.90
36446;DHT22;22472;50.848;-1.216;2022-08-04T00:38:31;19.40;99.90
36446;DHT22;22472;50.848;-1.216;2022-08-04T00:41:11;19.50;99.90
36446;DHT22;22472;50.848;-1.216;2022-08-04T00:44:01;19.50;99.90
36446;DHT22;22472;50.848;-1.216;2022-08-04T00:46:54;19.50;99.90
36446;DHT22;22472;50.848;-1.216;2022-08-04T00:49:47;19.40;99.90
36446;DHT22;22472;50.848;-1.216;2022-08-04T00:52:28;19.40;99.90
36446;DHT22;22472;50.848;-1.216;2022-08-04T00:55:05;19.40;99.90
36446;DHT22;22472;50.848;-1.216;2022-08-04T00:57:54;19.40;99.90
36446;DHT22;22472;50.848;-1.216;2022-08-04T01:00:23;19.30;99.90
36446;DHT22;22472;50.848;-1.216;2022-08-04T01:03:00;19.30;99.90
36446;DHT22;22472;50.848;-1.216;2022-08-04T01:05:44;19.30;99.90
36446;DHT22;22472;50.848;-1.216;2022-08-04T01:11:21;19.20;99.90
36446;DHT22;22472;50.848;-1.216;2022-08-04T01:14:05;19.20;99.90
36446;DHT22;22472;50.848;-1.216;2022-08-04T01:16:47;19.30;99.90
36446;DHT22;22472;50.848;-1.216;2022-08-04T01:22:27;19.20;99.90
36446;DHT22;22472;50.848;-1.216;2022-08-04T01:25:04;19.20;99.90
36446;DHT22;22472;50.848;-1.216;2022-08-04T01:27:48;19.10;99.90
36446;DHT22;22472;50.848;-1.216;2022-08-04T01:30:26;19.10;99.90
36446;DHT22;22472;50.848;-1.216;2022-08-04T01:33:02;19.10;99.90
36446;DHT22;22472;50.848;-1.216;2022-08-04T01:35:45;19.10;99.90
36446;DHT22;22472;50.848;-1.216;2022-08-04T01:38:17;19.00;99.90
36446;DHT22;22472;50.848;-1.216;2022-08-04T01:40:45;19.00;99.90
36446;DHT22;22472;50.848;-1.216;2022-08-04T01:43:13;19.00;99.90
36446;DHT22;22472;50.848;-1.216;2022-08-04T01:45:49;19.00;99.90
36446;DHT22;22472;50.848;-1.216;2022-08-04T01:48:17;18.90;99.90
36446;DHT22;22472;50.848;-1.216;2022-08-04T01:50:50;18.90;99.90
36446;DHT22;22472;50.848;-1.216;2022-08-04T01:53:18;18.90;99.90
36446;DHT22;22472;50.848;-1.216;2022-08-04T01:55:46;18.80;99.90
36446;DHT22;22472;50.848;-1.216;2022-08-04T01:58:17;18.80;99.90
36446;DHT22;22472;50.848;-1.216;2022-08-04T02:00:55;18.80;99.90
36446;DHT22;22472;50.848;-1.216;2022-08-04T02:03:24;18.80;99.90
36446;DHT22;22472;50.848;-1.216;2022-08-04T02:06:03;18.70;99.90
36446;DHT22;22472;50.848;-1.216;2022-08-04T02:08:40;18.80;99.90
36446;DHT22;22472;50.848;-1.216;2022-08-04T02:11:14;18.70;99.90
36446;DHT22;22472;50.848;-1.216;2022-08-04T02:13:52;18.70;99.90
36446;DHT22;22472;50.848;-1.216;2022-08-04T02:16:29;18.70;99.90
36446;DHT22;22472;50.848;-1.216;2022-08-04T02:19:03;18.70;99.90
36446;DHT22;22472;50.848;-1.216;2022-08-04T02:21:34;18.70;99.90
36446;DHT22;22472;50.848;-1.216;2022-08-04T02:24:06;18.60;99.90
36446;DHT22;22472;50.848;-1.216;2022-08-04T02:26:34;18.60;99.90
36446;DHT22;22472;50.848;-1.216;2022-08-04T02:29:09;18.60;99.90
36446;DHT22;22472;50.848;-1.216;2022-08-04T02:31:47;18.60;99.90
36446;DHT22;22472;50.848;-1.216;2022-08-04T02:34:20;18.60;99.90
36446;DHT22;22472;50.848;-1.216;2022-08-04T02:36:51;18.60;99.90
36446;DHT22;22472;50.848;-1.216;2022-08-04T02:39:20;18.50;99.90
36446;DHT22;22472;50.848;-1.216;2022-08-04T02:41:49;18.50;99.90
36446;DHT22;22472;50.848;-1.216;2022-08-04T02:44:20;18.50;99.90
36446;DHT22;22472;50.848;-1.216;2022-08-04T02:46:53;18.50;99.90
36446;DHT22;22472;50.848;-1.216;2022-08-04T02:49:21;18.50;99.90
36446;DHT22;22472;50.848;-1.216;2022-08-04T02:51:51;18.50;99.90
36446;DHT22;22472;50.848;-1.216;2022-08-04T02:54:24;18.40;99.90
36446;DHT22;22472;50.848;-1.216;2022-08-04T02:56:51;18.40;99.90
36446;DHT22;22472;50.848;-1.216;2022-08-04T02:59:22;18.40;99.90
36446;DHT22;22472;50.848;-1.216;2022-08-04T03:01:54;18.40;99.90
36446;DHT22;22472;50.848;-1.216;2022-08-04T03:04:33;18.40;99.90
36446;DHT22;22472;50.848;-1.216;2022-08-04T03:07:32;18.40;99.90
36446;DHT22;22472;50.848;-1.216;2022-08-04T03:10:33;18.40;99.90
36446;DHT22;22472;50.848;-1.216;2022-08-04T03:13:27;18.30;99.90
36446;DHT22;22472;50.848;-1.216;2022-08-04T03:16:29;18.20;99.90
36446;DHT22;22472;50.848;-1.216;2022-08-04T03:19:41;18.10;99.90
36446;DHT22;22472;50.848;-1.216;2022-08-04T03:26:03;17.90;99.90
36446;DHT22;22472;50.848;-1.216;2022-08-04T03:29:05;17.80;99.90
36446;DHT22;22472;50.848;-1.216;2022-08-04T03:32:09;17.70;99.90
36446;DHT22;22472;50.848;-1.216;2022-08-04T03:34:58;17.70;99.90
36446;DHT22;22472;50.848;-1.216;2022-08-04T03:37:52;17.60;99.90
36446;DHT22;22472;50.848;-1.216;2022-08-04T03:40:45;17.50;99.90
36446;DHT22;22472;50.848;-1.216;2022-08-04T03:43:35;17.50;99.90
36446;DHT22;22472;50.848;-1.216;2022-08-04T03:46:40;17.40;99.90
36446;DHT22;22472;50.848;-1.216;2022-08-04T03:52:42;17.30;99.90
36446;DHT22;22472;50.848;-1.216;2022-08-04T03:55:50;17.30;99.90
36446;DHT22;22472;50.848;-1.216;2022-08-04T03:58:38;17.20;99.90
36446;DHT22;22472;50.848;-1.216;2022-08-04T04:01:18;17.10;99.90
36446;DHT22;22472;50.848;-1.216;2022-08-04T04:04:09;17.10;99.90
36446;DHT22;22472;50.848;-1.216;2022-08-04T04:06:58;17.10;99.90
36446;DHT22;22472;50.848;-1.216;2022-08-04T04:10:02;17.00;99.90
36446;DHT22;22472;50.848;-1.216;2022-08-04T04:12:56;16.90;99.90
36446;DHT22;22472;50.848;-1.216;2022-08-04T04:15:45;16.90;99.90
36446;DHT22;22472;50.848;-1.216;2022-08-04T04:18:32;16.80;99.90
36446;DHT22;22472;50.848;-1.216;2022-08-04T04:21:28;16.80;99.90
36446;DHT22;22472;50.848;-1.216;2022-08-04T04:24:10;16.70;99.90
36446;DHT22;22472;50.848;-1.216;2022-08-04T04:26:54;16.60;99.90
36446;DHT22;22472;50.848;-1.216;2022-08-04T04:29:59;16.60;99.90
36446;DHT22;22472;50.848;-1.216;2022-08-04T04:32:34;16.50;99.90
36446;DHT22;22472;50.848;-1.216;2022-08-04T04:35:12;16.50;99.90
36446;DHT22;22472;50.848;-1.216;2022-08-04T04:37:55;16.50;99.90
36446;DHT22;22472;50.848;-1.216;2022-08-04T04:40:36;16.50;99.90
36446;DHT22;22472;50.848;-1.216;2022-08-04T04:43:22;16.50;99.90
36446;DHT22;22472;50.848;-1.216;2022-08-04T04:45:59;16.50;99.90
36446;DHT22;22472;50.848;-1.216;2022-08-04T04:48:35;16.50;99.90
36446;DHT22;22472;50.848;-1.216;2022-08-04T04:51:11;16.40;99.90
36446;DHT22;22472;50.848;-1.216;2022-08-04T04:53:48;16.40;99.90
36446;DHT22;22472;50.848;-1.216;2022-08-04T04:56:24;16.40;99.90
36446;DHT22;22472;50.848;-1.216;2022-08-04T04:58:55;16.40;99.90
36446;DHT22;22472;50.848;-1.216;2022-08-04T05:02:06;16.40;99.90
36446;DHT22;22472;50.848;-1.216;2022-08-04T05:07:57;16.40;99.90
36446;DHT22;22472;50.848;-1.216;2022-08-04T05:10:38;16.40;99.90
36446;DHT22;22472;50.848;-1.216;2022-08-04T05:13:17;16.50;99.90
36446;DHT22;22472;50.848;-1.216;2022-08-04T05:15:52;16.50;99.90
36446;DHT22;22472;50.848;-1.216;2022-08-04T05:18:23;16.50;99.90
36446;DHT22;22472;50.848;-1.216;2022-08-04T05:20:55;16.60;99.90
36446;DHT22;22472;50.848;-1.216;2022-08-04T05:23:26;16.70;99.90
36446;DHT22;22472;50.848;-1.216;2022-08-04T05:25:58;16.70;99.90
36446;DHT22;22472;50.848;-1.216;2022-08-04T05:28:29;16.70;99.90
36446;DHT22;22472;50.848;-1.216;2022-08-04T05:31:03;16.80;99.90
36446;DHT22;22472;50.848;-1.216;2022-08-04T05:33:33;16.90;99.90
36446;DHT22;22472;50.848;-1.216;2022-08-04T05:36:07;17.00;99.90
36446;DHT22;22472;50.848;-1.216;2022-08-04T05:38:38;17.00;99.90
36446;DHT22;22472;50.848;-1.216;2022-08-04T05:41:08;17.00;99.90
36446;DHT22;22472;50.848;-1.216;2022-08-04T05:43:36;17.00;99.90
36446;DHT22;22472;50.848;-1.216;2022-08-04T05:46:07;17.00;99.90
36446;DHT22;22472;50.848;-1.216;2022-08-04T05:48:35;17.10;99.90
36446;DHT22;22472;50.848;-1.216;2022-08-04T05:51:03;17.10;99.90
36446;DHT22;22472;50.848;-1.216;2022-08-04T05:53:31;17.20;99.90
36446;DHT22;22472;50.848;-1.216;2022-08-04T05:56:01;17.20;99.90
36446;DHT22;22472;50.848;-1.216;2022-08-04T05:58:29;17.20;99.90
36446;DHT22;22472;50.848;-1.216;2022-08-04T06:00:58;17.30;99.90
36446;DHT22;22472;50.848;-1.216;2022-08-04T06:03:28;17.30;99.90
36446;DHT22;22472;50.848;-1.216;2022-08-04T06:05:56;17.30;99.90
36446;DHT22;22472;50.848;-1.216;2022-08-04T06:08:24;17.30;99.90
36446;DHT22;22472;50.848;-1.216;2022-08-04T06:10:52;17.30;99.90
36446;DHT22;22472;50.848;-1.216;2022-08-04T06:13:28;17.40;99.90
36446;DHT22;22472;50.848;-1.216;2022-08-04T06:15:55;17.40;99.90
36446;DHT22;22472;50.848;-1.216;2022-08-04T06:18:26;17.50;99.90
36446;DHT22;22472;50.848;-1.216;2022-08-04T06:20:56;17.60;99.90
36446;DHT22;22472;50.848;-1.216;2022-08-04T06:23:26;17.60;99.90
36446;DHT22;22472;50.848;-1.216;2022-08-04T06:25:58;17.70;99.90
36446;DHT22;22472;50.848;-1.216;2022-08-04T06:28:26;17.60;99.90
36446;DHT22;22472;50.848;-1.216;2022-08-04T06:30:54;17.60;99.90
36446;DHT22;22472;50.848;-1.216;2022-08-04T06:33:29;17.70;99.90
36446;DHT22;22472;50.848;-1.216;2022-08-04T06:36:01;17.70;99.90
36446;DHT22;22472;50.848;-1.216;2022-08-04T06:38:29;17.70;99.90
36446;DHT22;22472;50.848;-1.216;2022-08-04T06:40:57;17.80;99.90
36446;DHT22;22472;50.848;-1.216;2022-08-04T06:43:25;17.80;99.90
36446;DHT22;22472;50.848;-1.216;2022-08-04T06:45:53;17.90;99.90
36446;DHT22;22472;50.848;-1.216;2022-08-04T06:48:21;17.90;99.90
36446;DHT22;22472;50.848;-1.216;2022-08-04T06:50:52;17.90;99.90
36446;DHT22;22472;50.848;-1.216;2022-08-04T06:53:19;18.00;99.90
36446;DHT22;22472;50.848;-1.216;2022-08-04T06:55:47;18.10;99.90
36446;DHT22;22472;50.848;-1.216;2022-08-04T06:58:16;18.20;99.90
36446;DHT22;22472;50.848;-1.216;2022-08-04T07:00:44;18.40;99.90
36446;DHT22;22472;50.848;-1.216;2022-08-04T07:03:14;18.50;99.90
36446;DHT22;22472;50.848;-1.216;2022-08-04T07:05:43;18.60;99.90
36446;DHT22;22472;50.848;-1.216;2022-08-04T07:08:13;18.80;99.90
36446;DHT22;22472;50.848;-1.216;2022-08-04T07:10:41;18.90;99.90
36446;DHT22;22472;50.848;-1.216;2022-08-04T07:13:09;18.90;99.90
36446;DHT22;22472;50.848;-1.216;2022-08-04T07:15:39;19.00;99.90
36446;DHT22;22472;50.848;-1.216;2022-08-04T07:18:07;19.10;99.90
36446;DHT22;22472;50.848;-1.216;2022-08-04T07:20:34;19.30;99.90
36446;DHT22;22472;50.848;-1.216;2022-08-04T07:23:01;19.40;99.90
36446;DHT22;22472;50.848;-1.216;2022-08-04T07:25:30;19.60;99.90
36446;DHT22;22472;50.848;-1.216;2022-08-04T07:27:57;19.60;99.90
36446;DHT22;22472;50.848;-1.216;2022-08-04T07:30:25;19.70;99.90
36446;DHT22;22472;50.848;-1.216;2022-08-04T07:32:54;20.00;99.90
36446;DHT22;22472;50.848;-1.216;2022-08-04T07:35:22;20.10;99.90
36446;DHT22;22472;50.848;-1.216;2022-08-04T07:37:49;20.10;99.90
36446;DHT22;22472;50.848;-1.216;2022-08-04T07:40:16;20.30;99.90
36446;DHT22;22472;50.848;-1.216;2022-08-04T07:42:45;20.40;99.90
36446;DHT22;22472;50.848;-1.216;2022-08-04T07:45:12;20.50;99.90
36446;DHT22;22472;50.848;-1.216;2022-08-04T07:47:44;20.50;99.90
36446;DHT22;22472;50.848;-1.216;2022-08-04T07:50:11;20.50;99.90
36446;DHT22;22472;50.848;-1.216;2022-08-04T07:52:38;20.50;99.90
36446;DHT22;22472;50.848;-1.216;2022-08-04T07:55:06;20.80;99.90
36446;DHT22;22472;50.848;-1.216;2022-08-04T07:57:34;21.00;99.90
36446;DHT22;22472;50.848;-1.216;2022-08-04T08:00:04;21.00;99.90
36446;DHT22;22472;50.848;-1.216;2022-08-04T08:02:32;21.20;99.90
36446;DHT22;22472;50.848;-1.216;2022-08-04T08:05:00;21.50;99.90
36446;DHT22;22472;50.848;-1.216;2022-08-04T08:07:28;21.60;99.90
36446;DHT22;22472;50.848;-1.216;2022-08-04T08:09:55;21.80;99.90
36446;DHT22;22472;50.848;-1.216;2022-08-04T08:12:22;21.90;99.90
36446;DHT22;22472;50.848;-1.216;2022-08-04T08:14:50;21.80;99.90
36446;DHT22;22472;50.848;-1.216;2022-08-04T08:17:19;22.00;99.90
36446;DHT22;22472;50.848;-1.216;2022-08-04T08:19:46;22.20;99.90
36446;DHT22;22472;50.848;-1.216;2022-08-04T08:22:13;22.10;99.90
36446;DHT22;22472;50.848;-1.216;2022-08-04T08:24:40;22.60;99.90
36446;DHT22;22472;50.848;-1.216;2022-08-04T08:27:07;23.00;99.90
36446;DHT22;22472;50.848;-1.216;2022-08-04T08:29:35;23.10;99.90
36446;DHT22;22472;50.848;-1.216;2022-08-04T08:32:04;23.20;99.90
36446;DHT22;22472;50.848;-1.216;2022-08-04T08:34:34;23.50;99.90
36446;DHT22;22472;50.848;-1.216;2022-08-04T08:37:06;23.60;99.90
36446;DHT22;22472;50.848;-1.216;2022-08-04T08:39:38;23.50;99.90
36446;DHT22;22472;50.848;-1.216;2022-08-04T08:42:40;23.80;99.90
36446;DHT22;22472;50.848;-1.216;2022-08-04T08:45:34;23.60;99.90
36446;DHT22;22472;50.848;-1.216;2022-08-04T08:48:27;24.10;99.90
36446;DHT22;22472;50.848;-1.216;2022-08-04T08:51:19;24.50;99.90
36446;DHT22;22472;50.848;-1.216;2022-08-04T08:54:04;24.50;99.90
36446;DHT22;22472;50.848;-1.216;2022-08-04T08:56:42;24.20;99.90
36446;DHT22;22472;50.848;-1.216;2022-08-04T08:59:31;23.70;99.90
36446;DHT22;22472;50.848;-1.216;2022-08-04T09:02:13;23.40;99.90
36446;DHT22;22472;50.848;-1.216;2022-08-04T09:05:04;23.30;99.90
36446;DHT22;22472;50.848;-1.216;2022-08-04T09:07:56;23.60;99.90
36446;DHT22;22472;50.848;-1.216;2022-08-04T09:10:35;24.30;99.90
36446;DHT22;22472;50.848;-1.216;2022-08-04T09:13:09;24.10;99.90
36446;DHT22;22472;50.848;-1.216;2022-08-04T09:15:44;23.40;99.90
36446;DHT22;22472;50.848;-1.216;2022-08-04T09:18:17;23.00;99.90
36446;DHT22;22472;50.848;-1.216;2022-08-04T09:20:48;23.30;99.90
36446;DHT22;22472;50.848;-1.216;2022-08-04T09:23:25;24.00;99.90
36446;DHT22;22472;50.848;-1.216;2022-08-04T09:25:59;24.70;99.90
36446;DHT22;22472;50.848;-1.216;2022-08-04T09:28:34;24.50;99.90
36446;DHT22;22472;50.848;-1.216;2022-08-04T09:31:11;24.70;99.90
36446;DHT22;22472;50.848;-1.216;2022-08-04T09:33:47;24.50;99.90
36446;DHT22;22472;50.848;-1.216;2022-08-04T09:36:26;24.70;99.90
36446;DHT22;22472;50.848;-1.216;2022-08-04T09:39:03;24.60;99.90
36446;DHT22;22472;50.848;-1.216;2022-08-04T09:41:37;24.50;99.90
36446;DHT22;22472;50.848;-1.216;2022-08-04T09:44:17;24.40;99.90
36446;DHT22;22472;50.848;-1.216;2022-08-04T09:46:52;24.80;99.90
36446;DHT22;22472;50.848;-1.216;2022-08-04T09:49:26;24.50;99.90
36446;DHT22;22472;50.848;-1.216;2022-08-04T09:52:05;25.00;99.90
36446;DHT22;22472;50.848;-1.216;2022-08-04T09:54:44;24.50;99.90
36446;DHT22;22472;50.848;-1.216;2022-08-04T09:57:24;24.20;99.90
36446;DHT22;22472;50.848;-1.216;2022-08-04T10:00:02;24.50;99.90
36446;DHT22;22472;50.848;-1.216;2022-08-04T10:02:33;25.30;99.90
36446;DHT22;22472;50.848;-1.216;2022-08-04T10:05:03;25.40;99.90
36446;DHT22;22472;50.848;-1.216;2022-08-04T10:07:44;26.10;99.90
36446;DHT22;22472;50.848;-1.216;2022-08-04T10:10:32;26.80;99.90
36446;DHT22;22472;50.848;-1.216;2022-08-04T10:13:16;26.60;99.90
36446;DHT22;22472;50.848;-1.216;2022-08-04T10:15:50;26.60;99.90
36446;DHT22;22472;50.848;-1.216;2022-08-04T10:18:33;25.80;99.90
36446;DHT22;22472;50.848;-1.216;2022-08-04T10:21:07;26.10;99.90
36446;DHT22;22472;50.848;-1.216;2022-08-04T10:23:45;27.20;99.90
36446;DHT22;22472;50.848;-1.216;2022-08-04T10:26:26;27.20;99.90
36446;DHT22;22472;50.848;-1.216;2022-08-04T10:28:57;27.80;99.90
36446;DHT22;22472;50.848;-1.216;2022-08-04T10:31:29;28.30;99.90
36446;DHT22;22472;50.848;-1.216;2022-08-04T10:34:00;28.60;99.90
36446;DHT22;22472;50.848;-1.216;2022-08-04T10:36:33;28.60;99.90
36446;DHT22;22472;50.848;-1.216;2022-08-04T10:39:07;28.70;99.90
36446;DHT22;22472;50.848;-1.216;2022-08-04T10:41:45;28.80;99.90
36446;DHT22;22472;50.848;-1.216;2022-08-04T10:44:19;28.40;99.90
36446;DHT22;22472;50.848;-1.216;2022-08-04T10:46:53;27.70;99.90
36446;DHT22;22472;50.848;-1.216;2022-08-04T10:49:23;27.50;99.90
36446;DHT22;22472;50.848;-1.216;2022-08-04T10:52:04;28.20;99.90
36446;DHT22;22472;50.848;-1.216;2022-08-04T10:54:45;29.00;99.90
36446;DHT22;22472;50.848;-1.216;2022-08-04T10:57:19;29.90;99.90
36446;DHT22;22472;50.848;-1.216;2022-08-04T10:59:52;29.10;99.90
36446;DHT22;22472;50.848;-1.216;2022-08-04T11:02:29;27.60;99.90
36446;DHT22;22472;50.848;-1.216;2022-08-04T11:05:16;26.90;99.90
36446;DHT22;22472;50.848;-1.216;2022-08-04T11:07:47;26.40;99.90
36446;DHT22;22472;50.848;-1.216;2022-08-04T11:10:17;26.50;99.90
36446;DHT22;22472;50.848;-1.216;2022-08-04T11:12:51;27.70;99.90
36446;DHT22;22472;50.848;-1.216;2022-08-04T11:15:21;27.50;99.90
36446;DHT22;22472;50.848;-1.216;2022-08-04T11:17:54;28.20;99.90
36446;DHT22;22472;50.848;-1.216;2022-08-04T11:20:26;28.90;99.90
36446;DHT22;22472;50.848;-1.216;2022-08-04T11:23:00;29.50;99.90
36446;DHT22;22472;50.848;-1.216;2022-08-04T11:25:32;30.30;99.90
36446;DHT22;22472;50.848;-1.216;2022-08-04T11:28:10;30.00;99.90
36446;DHT22;22472;50.848;-1.216;2022-08-04T11:30:41;29.80;99.90
36446;DHT22;22472;50.848;-1.216;2022-08-04T11:33:20;30.40;99.90
36446;DHT22;22472;50.848;-1.216;2022-08-04T11:35:56;31.00;99.90
36446;DHT22;22472;50.848;-1.216;2022-08-04T11:38:32;31.70;99.90
36446;DHT22;22472;50.848;-1.216;2022-08-04T11:41:06;30.40;99.90
36446;DHT22;22472;50.848;-1.216;2022-08-04T11:43:43;29.80;99.90
36446;DHT22;22472;50.848;-1.216;2022-08-04T11:46:14;29.80;99.90
36446;DHT22;22472;50.848;-1.216;2022-08-04T11:48:49;29.00;99.90
36446;DHT22;22472;50.848;-1.216;2022-08-04T11:51:18;29.20;99.90
36446;DHT22;22472;50.848;-1.216;2022-08-04T11:53:47;29.80;99.90
36446;DHT22;22472;50.848;-1.216;2022-08-04T11:56:15;30.90;99.90
36446;DHT22;22472;50.848;-1.216;2022-08-04T11:58:43;31.50;99.70
36446;DHT22;22472;50.848;-1.216;2022-08-04T12:01:17;31.40;99.70
36446;DHT22;22472;50.848;-1.216;2022-08-04T12:03:58;31.90;99.50
36446;DHT22;22472;50.848;-1.216;2022-08-04T12:06:31;29.90;99.50
36446;DHT22;22472;50.848;-1.216;2022-08-04T12:09:06;28.80;99.50
36446;DHT22;22472;50.848;-1.216;2022-08-04T12:11:48;28.00;99.50
36446;DHT22;22472;50.848;-1.216;2022-08-04T12:14:24;28.00;99.70
36446;DHT22;22472;50.848;-1.216;2022-08-04T12:16:57;28.80;99.70
36446;DHT22;22472;50.848;-1.216;2022-08-04T12:19:30;29.70;99.60
36446;DHT22;22472;50.848;-1.216;2022-08-04T12:22:02;30.40;99.50
36446;DHT22;22472;50.848;-1.216;2022-08-04T12:24:33;30.80;99.20
36446;DHT22;22472;50.848;-1.216;2022-08-04T12:27:09;30.80;99.20
36446;DHT22;22472;50.848;-1.216;2022-08-04T12:29:40;30.40;99.00
36446;DHT22;22472;50.848;-1.216;2022-08-04T12:32:17;29.80;98.80
36446;DHT22;22472;50.848;-1.216;2022-08-04T12:34:56;29.60;98.90
36446;DHT22;22472;50.848;-1.216;2022-08-04T12:37:32;29.10;99.00
36446;DHT22;22472;50.848;-1.216;2022-08-04T12:40:04;28.90;99.10
36446;DHT22;22472;50.848;-1.216;2022-08-04T12:42:41;29.20;99.10
36446;DHT22;22472;50.848;-1.216;2022-08-04T12:45:11;30.80;99.30
36446;DHT22;22472;50.848;-1.216;2022-08-04T12:47:39;32.10;99.40
36446;DHT22;22472;50.848;-1.216;2022-08-04T12:50:08;32.80;98.20
36446;DHT22;22472;50.848;-1.216;2022-08-04T12:52:41;31.90;98.50
36446;DHT22;22472;50.848;-1.216;2022-08-04T12:55:09;31.70;98.50
36446;DHT22;22472;50.848;-1.216;2022-08-04T12:57:38;31.30;98.60
36446;DHT22;22472;50.848;-1.216;2022-08-04T13:00:07;30.70;98.90
36446;DHT22;22472;50.848;-1.216;2022-08-04T13:02:40;30.20;99.60
36446;DHT22;22472;50.848;-1.216;2022-08-04T13:05:10;29.60;99.80
36446;DHT22;22472;50.848;-1.216;2022-08-04T13:07:41;29.00;99.70
36446;DHT22;22472;50.848;-1.216;2022-08-04T13:10:14;28.60;99.60
36446;DHT22;22472;50.848;-1.216;2022-08-04T13:12:50;28.40;99.30
36446;DHT22;22472;50.848;-1.216;2022-08-04T13:15:21;28.50;99.00
36446;DHT22;22472;50.848;-1.216;2022-08-04T13:17:55;28.80;99.00
36446;DHT22;22472;50.848;-1.216;2022-08-04T13:20:26;29.80;98.90
36446;DHT22;22472;50.848;-1.216;2022-08-04T13:22:59;30.80;98.40
36446;DHT22;22472;50.848;-1.216;2022-08-04T13:25:30;31.10;98.20
36446;DHT22;22472;50.848;-1.216;2022-08-04T13:27:59;30.60;96.80
36446;DHT22;22472;50.848;-1.216;2022-08-04T13:30:27;30.10;96.60
36446;DHT22;22472;50.848;-1.216;2022-08-04T13:33:01;29.60;96.00
36446;DHT22;22472;50.848;-1.216;2022-08-04T13:35:29;29.20;95.70
36446;DHT22;22472;50.848;-1.216;2022-08-04T13:37:58;28.90;95.60
36446;DHT22;22472;50.848;-1.216;2022-08-04T13:40:26;28.90;96.10
36446;DHT22;22472;50.848;-1.216;2022-08-04T13:42:54;29.00;96.40
36446;DHT22;22472;50.848;-1.216;2022-08-04T13:45:23;28.60;97.50
36446;DHT22;22472;50.848;-1.216;2022-08-04T13:47:58;28.70;97.50
36446;DHT22;22472;50.848;-1.216;2022-08-04T13:50:27;28.70;98.00
36446;DHT22;22472;50.848;-1.216;2022-08-04T13:52:57;29.00;97.80
36446;DHT22;22472;50.848;-1.216;2022-08-04T13:55:28;29.20;97.90
36446;DHT22;22472;50.848;-1.216;2022-08-04T13:58:09;28.90;97.90
36446;DHT22;22472;50.848;-1.216;2022-08-04T14:00:41;28.90;97.50
36446;DHT22;22472;50.848;-1.216;2022-08-04T14:03:17;29.10;97.60
36446;DHT22;22472;50.848;-1.216;2022-08-04T14:06:09;28.80;97.10
36446;DHT22;22472;50.848;-1.216;2022-08-04T14:08:46;28.80;96.90
36446;DHT22;22472;50.848;-1.216;2022-08-04T14:11:13;29.40;96.70
36446;DHT22;22472;50.848;-1.216;2022-08-04T14:13:42;29.60;96.20
36446;DHT22;22472;50.848;-1.216;2022-08-04T14:16:18;29.70;95.80
36446;DHT22;22472;50.848;-1.216;2022-08-04T14:18:48;30.20;95.10
36446;DHT22;22472;50.848;-1.216;2022-08-04T14:21:22;30.00;94.80
36446;DHT22;22472;50.848;-1.216;2022-08-04T14:23:51;30.10;94.80
36446;DHT22;22472;50.848;-1.216;2022-08-04T14:26:21;29.40;94.70
36446;DHT22;22472;50.848;-1.216;2022-08-04T14:28:49;29.20;94.80
36446;DHT22;22472;50.848;-1.216;2022-08-04T14:31:18;29.00;95.10
36446;DHT22;22472;50.848;-1.216;2022-08-04T14:33:49;28.50;95.40
36446;DHT22;22472;50.848;-1.216;2022-08-04T14:36:17;28.80;95.70
36446;DHT22;22472;50.848;-1.216;2022-08-04T14:38:52;28.80;95.80
36446;DHT22;22472;50.848;-1.216;2022-08-04T14:41:22;29.10;95.80
36446;DHT22;22472;50.848;-1.216;2022-08-04T14:43:52;29.60;95.80
36446;DHT22;22472;50.848;-1.216;2022-08-04T14:46:19;29.70;95.70
36446;DHT22;22472;50.848;-1.216;2022-08-04T14:49:04;29.50;95.40
36446;DHT22;22472;50.848;-1.216;2022-08-04T14:51:36;29.30;95.40
36446;DHT22;22472;50.848;-1.216;2022-08-04T14:54:04;29.60;95.20
36446;DHT22;22472;50.848;-1.216;2022-08-04T14:56:32;30.00;95.10
36446;DHT22;22472;50.848;-1.216;2022-08-04T14:59:02;30.10;95.10
36446;DHT22;22472;50.848;-1.216;2022-08-04T15:01:30;29.50;95.10
36446;DHT22;22472;50.848;-1.216;2022-08-04T15:04:02;29.20;95.20
36446;DHT22;22472;50.848;-1.216;2022-08-04T15:06:30;29.50;95.10
36446;DHT22;22472;50.848;-1.216;2022-08-04T15:09:01;29.30;95.10
36446;DHT22;22472;50.848;-1.216;2022-08-04T15:11:28;29.40;95.10
36446;DHT22;22472;50.848;-1.216;2022-08-04T15:13:56;29.30;95.00
36446;DHT22;22472;50.848;-1.216;2022-08-04T15:16:26;29.40;95.10
36446;DHT22;22472;50.848;-1.216;2022-08-04T15:18:54;28.60;94.90
36446;DHT22;22472;50.848;-1.216;2022-08-04T15:21:24;28.60;94.80
36446;DHT22;22472;50.848;-1.216;2022-08-04T15:23:54;28.80;95.20
36446;DHT22;22472;50.848;-1.216;2022-08-04T15:26:26;29.30;95.10
36446;DHT22;22472;50.848;-1.216;2022-08-04T15:28:57;29.70;95.10
36446;DHT22;22472;50.848;-1.216;2022-08-04T15:31:26;29.20;95.00
36446;DHT22;22472;50.848;-1.216;2022-08-04T15:33:54;28.80;95.10
36446;DHT22;22472;50.848;-1.216;2022-08-04T15:36:33;28.60;95.00
36446;DHT22;22472;50.848;-1.216;2022-08-04T15:39:04;28.20;94.80
36446;DHT22;22472;50.848;-1.216;2022-08-04T15:41:41;28.00;94.90
36446;DHT22;22472;50.848;-1.216;2022-08-04T15:44:37;27.60;95.00
36446;DHT22;22472;50.848;-1.216;2022-08-04T15:47:14;27.70;95.10
36446;DHT22;22472;50.848;-1.216;2022-08-04T15:49:42;27.60;95.30
36446;DHT22;22472;50.848;-1.216;2022-08-04T15:52:12;27.10;95.40
36446;DHT22;22472;50.848;-1.216;2022-08-04T15:54:42;27.00;95.60
36446;DHT22;22472;50.848;-1.216;2022-08-04T15:57:09;27.00;95.80
36446;DHT22;22472;50.848;-1.216;2022-08-04T16:00:04;26.50;95.90
36446;DHT22;22472;50.848;-1.216;2022-08-04T16:02:41;26.50;96.00
36446;DHT22;22472;50.848;-1.216;2022-08-04T16:05:34;26.30;96.20
36446;DHT22;22472;50.848;-1.216;2022-08-04T16:08:16;26.20;96.30
36446;DHT22;22472;50.848;-1.216;2022-08-04T16:10:46;26.10;96.40
36446;DHT22;22472;50.848;-1.216;2022-08-04T16:13:14;26.00;96.50
36446;DHT22;22472;50.848;-1.216;2022-08-04T16:15:49;25.90;96.60
36446;DHT22;22472;50.848;-1.216;2022-08-04T16:18:35;25.90;96.80